Time;durP1;ratioP1;P1;durP2;ratioP2;P2;SDS_P1;SDS_P2;PMS_P1;PMS_P2;Temp;Humidity;BMP_temperature;BMP_pressure;BME280_temperature;BME280_humidity;BME280_pressure;Samples;Min_cycle;Max_cycle;Signal;HPM_P1;HPM_P2
2023/12/04 00:00:26;;;;;;;0.00;0.00;;;21.00;48.50;;;;;;5034991;28;20223;-49
2023/12/04 00:02:56;;;;;;;0.00;0.00;;;21.10;48.60;;;;;;5034985;28;20199;-50
2023/12/04 00:05:27;;;;;;;0.00;0.00;;;21.10;48.50;;;;;;5034766;28;20211;-48
2023/12/04 00:08:00;;;;;;;0.00;0.00;;;21.10;48.50;;;;;;5034660;28;20196;-48
2023/12/04 00:10:30;;;;;;;0.00;0.00;;;21.00;48.50;;;;;;5034271;28;20234;-46
2023/12/04 00:13:01;;;;;;;0.00;0.00;;;21.00;48.50;;;;;;5031495;28;20184;-48
2023/12/04 00:15:32;;;;;;;0.08;0.08;;;21.10;48.60;;;;;;5033991;28;20215;-51
2023/12/04 00:18:02;;;;;;;0.00;0.00;;;21.10;48.60;;;;;;5034419;28;20224;-50
2023/12/04 00:20:33;;;;;;;0.10;0.10;;;21.10;48.70;;;;;;5034577;28;20575;-48
2023/12/04 00:23:05;;;;;;;0.00;0.00;;;21.10;48.60;;;;;;5034286;28;20203;-50
2023/12/04 00:25:36;;;;;;;0.05;0.05;;;21.10;48.70;;;;;;5034136;28;20196;-46
2023/12/04 00:28:07;;;;;;;0.00;0.00;;;21.10;48.60;;;;;;5031185;28;20199;-48
2023/12/04 00:30:36;;;;;;;0.00;0.00;;;21.10;48.60;;;;;;5034032;28;20574;-48
2023/12/04 00:33:07;;;;;;;0.00;0.00;;;21.10;48.60;;;;;;5034344;28;20196;-48
2023/12/04 00:35:38;;;;;;;0.10;0.10;;;21.10;48.50;;;;;;5033900;28;20207;-51
2023/12/04 00:38:10;;;;;;;0.10;0.10;;;21.10;48.50;;;;;;5032548;28;20228;-46
2023/12/04 00:40:41;;;;;;;0.00;0.00;;;21.10;48.50;;;;;;5033741;28;20230;-48
2023/12/04 00:43:11;;;;;;;0.00;0.00;;;21.10;48.50;;;;;;5032956;28;20200;-50
2023/12/04 00:45:42;;;;;;;0.05;0.05;;;21.20;48.60;;;;;;5031984;28;20219;-49
2023/12/04 00:48:13;;;;;;;0.05;0.05;;;21.20;48.50;;;;;;5033977;28;20216;-48
2023/12/04 00:50:43;;;;;;;0.00;0.00;;;21.20;48.50;;;;;;5034010;28;20208;-45
2023/12/04 00:53:16;;;;;;;0.05;0.05;;;21.20;48.50;;;;;;5033957;28;20196;-49
2023/12/04 00:55:47;;;;;;;0.10;0.10;;;21.20;48.50;;;;;;5026425;28;20201;-49
2023/12/04 00:58:17;;;;;;;0.00;0.00;;;21.20;48.50;;;;;;5013726;28;20723;-46
2023/12/04 01:00:50;;;;;;;0.00;0.00;;;21.20;48.50;;;;;;5013792;28;20232;-49
2023/12/04 01:03:21;;;;;;;0.00;0.00;;;21.20;48.40;;;;;;5012740;28;20200;-50
2023/12/04 01:05:51;;;;;;;0.10;0.10;;;21.20;48.40;;;;;;5013382;28;20193;-51
2023/12/04 01:08:24;;;;;;;0.00;0.00;;;21.20;48.40;;;;;;5013200;28;20543;-50
2023/12/04 01:10:55;;;;;;;0.08;0.08;;;21.30;48.40;;;;;;5029304;28;20707;-48
2023/12/04 01:13:25;;;;;;;0.00;0.00;;;21.30;48.40;;;;;;5034043;28;20196;-49
2023/12/04 01:15:56;;;;;;;0.00;0.00;;;21.30;48.40;;;;;;5033412;28;20530;-51
2023/12/04 01:18:27;;;;;;;0.10;0.10;;;21.30;48.30;;;;;;5032327;28;20339;-47
2023/12/04 01:20:57;;;;;;;0.00;0.00;;;21.30;48.20;;;;;;5033042;28;20220;-50
2023/12/04 01:23:30;;;;;;;0.00;0.00;;;21.30;48.20;;;;;;5033271;28;20196;-48
2023/12/04 01:26:01;;;;;;;0.10;0.10;;;21.30;48.20;;;;;;5033159;28;20211;-48
2023/12/04 01:28:31;;;;;;;0.00;0.00;;;21.30;48.20;;;;;;5032912;28;20196;-46
2023/12/04 01:31:02;;;;;;;0.03;0.03;;;21.40;48.20;;;;;;5033171;28;20216;-48
2023/12/04 01:33:34;;;;;;;0.00;0.00;;;21.40;48.20;;;;;;5032211;28;20740;-48
2023/12/04 01:36:05;;;;;;;0.00;0.00;;;21.40;48.20;;;;;;5032941;28;20200;-48
2023/12/04 01:38:37;;;;;;;0.10;0.10;;;21.40;48.10;;;;;;5033014;28;20195;-47
2023/12/04 01:41:08;;;;;;;0.00;0.00;;;21.40;48.10;;;;;;5032806;28;20219;-48
2023/12/04 01:43:39;;;;;;;0.00;0.00;;;21.40;48.10;;;;;;5013340;28;20213;-48
2023/12/04 01:46:11;;;;;;;0.00;0.00;;;21.40;48.00;;;;;;5013086;28;20200;-50
2023/12/04 01:48:42;;;;;;;0.00;0.00;;;21.40;48.00;;;;;;5012096;28;20201;-49
2023/12/04 01:51:15;;;;;;;0.00;0.00;;;21.40;48.00;;;;;;5012837;28;20217;-48
2023/12/04 01:53:48;;;;;;;0.00;0.00;;;21.50;48.00;;;;;;5013164;28;20201;-46
2023/12/04 01:56:20;;;;;;;0.00;0.00;;;21.50;47.90;;;;;;5032662;28;20645;-46
2023/12/04 01:58:51;;;;;;;0.10;0.10;;;21.50;47.80;;;;;;5032808;28;20651;-48
2023/12/04 02:01:24;;;;;;;0.00;0.00;;;21.50;47.80;;;;;;5032319;28;20223;-49
2023/12/04 02:03:56;;;;;;;0.00;0.00;;;21.50;47.80;;;;;;5032231;28;20204;-48
2023/12/04 02:06:28;;;;;;;0.00;0.00;;;21.50;47.70;;;;;;5032577;28;20196;-48
2023/12/04 02:09:01;;;;;;;0.00;0.00;;;21.50;47.70;;;;;;5032260;28;20214;-47
2023/12/04 02:11:32;;;;;;;0.10;0.10;;;21.50;47.70;;;;;;5032468;28;20220;-46
2023/12/04 02:14:02;;;;;;;0.00;0.00;;;21.50;47.70;;;;;;5031185;28;20656;-48
2023/12/04 02:16:35;;;;;;;0.00;0.00;;;21.50;47.60;;;;;;5030585;28;20192;-47
2023/12/04 02:19:06;;;;;;;0.00;0.00;;;21.50;47.60;;;;;;5031689;28;20196;-48
2023/12/04 02:21:36;;;;;;;0.00;0.00;;;21.50;47.60;;;;;;5028586;28;20224;-47
2023/12/04 02:24:09;;;;;;;0.03;0.03;;;21.60;47.60;;;;;;5031797;28;20204;-48
2023/12/04 02:26:47;;;;;;;0.00;0.00;;;21.60;47.60;;;;;;5031520;28;20729;-49
2023/12/04 02:29:24;;;;;;;0.00;0.00;;;21.60;47.60;;;;;;5031506;28;20761;-51
2023/12/04 02:31:56;;;;;;;0.10;0.10;;;21.60;47.40;;;;;;5030886;28;20220;-49
2023/12/04 02:34:27;;;;;;;0.10;0.10;;;21.60;47.40;;;;;;5031556;28;20204;-48
2023/12/04 02:36:59;;;;;;;0.00;0.00;;;21.60;47.40;;;;;;5031750;28;20212;-50
2023/12/04 02:39:32;;;;;;;0.10;0.10;;;21.60;47.40;;;;;;5031623;28;20193;-46
2023/12/04 02:42:02;;;;;;;0.00;0.00;;;21.60;47.40;;;;;;5031978;28;20223;-44
2023/12/04 02:44:33;;;;;;;0.00;0.00;;;21.60;47.40;;;;;;5031526;28;20208;-44
2023/12/04 02:47:04;;;;;;;0.00;0.00;;;21.60;47.40;;;;;;5030741;28;20735;-45
2023/12/04 02:49:35;;;;;;;0.03;0.03;;;21.60;47.30;;;;;;5031288;28;20207;-46
2023/12/04 02:52:05;;;;;;;0.00;0.00;;;21.70;47.40;;;;;;5019705;28;20220;-45
2023/12/04 02:54:38;;;;;;;0.08;0.08;;;21.70;47.30;;;;;;5031867;28;20197;-46
2023/12/04 02:57:09;;;;;;;0.00;0.00;;;21.70;47.30;;;;;;5031449;28;20234;-48
2023/12/04 02:59:40;;;;;;;0.00;0.00;;;21.70;47.30;;;;;;5031308;28;20196;-43
2023/12/04 03:02:10;;;;;;;0.00;0.00;;;21.70;47.20;;;;;;5030629;28;20227;-46
2023/12/04 03:04:41;;;;;;;0.05;0.05;;;21.70;47.20;;;;;;5031380;28;20204;-49
2023/12/04 03:07:12;;;;;;;0.00;0.00;;;21.70;47.10;;;;;;5031558;28;20208;-48
2023/12/04 03:09:44;;;;;;;0.00;0.00;;;21.70;47.00;;;;;;5031677;28;20196;-43
2023/12/04 03:12:15;;;;;;;0.00;0.00;;;21.70;47.00;;;;;;5031978;28;20223;-45
2023/12/04 03:14:46;;;;;;;0.10;0.10;;;21.70;47.00;;;;;;5031356;28;20660;-46
2023/12/04 03:17:16;;;;;;;0.00;0.00;;;21.70;47.50;;;;;;5017688;28;20217;-46
2023/12/04 03:19:47;;;;;;;0.00;0.00;;;21.70;46.90;;;;;;5011437;28;20200;-46
2023/12/04 03:22:18;;;;;;;0.10;0.10;;;21.70;46.90;;;;;;5011485;28;20216;-46
2023/12/04 03:24:51;;;;;;;0.00;0.00;;;21.70;46.90;;;;;;5020199;28;20200;-44
2023/12/04 03:27:21;;;;;;;0.10;0.10;;;21.70;46.90;;;;;;5030954;28;20222;-48
2023/12/04 03:29:52;;;;;;;0.10;0.10;;;21.70;46.90;;;;;;5031444;28;20219;-45
2023/12/04 03:32:23;;;;;;;0.00;0.00;;;21.70;46.90;;;;;;5030812;28;20211;-47
2023/12/04 03:34:53;;;;;;;0.10;0.10;;;21.70;46.90;;;;;;5031258;28;20692;-45
2023/12/04 03:37:24;;;;;;;0.10;0.10;;;21.80;46.90;;;;;;5030245;28;20231;-46
2023/12/04 03:39:57;;;;;;;0.00;0.00;;;21.80;46.90;;;;;;5030742;28;20675;-45
2023/12/04 03:42:27;;;;;;;0.10;0.10;;;21.80;46.90;;;;;;5031448;28;20660;-45
2023/12/04 03:44:58;;;;;;;0.10;0.10;;;21.80;46.80;;;;;;5031158;28;20208;-48
2023/12/04 03:47:29;;;;;;;0.00;0.00;;;21.80;46.80;;;;;;5030678;28;20192;-46
2023/12/04 03:49:59;;;;;;;0.00;0.00;;;21.80;46.70;;;;;;5030984;28;20223;-47
2023/12/04 03:52:30;;;;;;;0.00;0.00;;;21.80;46.60;;;;;;5031210;28;20192;-47
2023/12/04 03:55:03;;;;;;;0.00;0.00;;;21.80;46.60;;;;;;5030864;28;20215;-48
2023/12/04 03:57:34;;;;;;;0.00;0.00;;;21.80;46.60;;;;;;5031313;28;20314;-46
2023/12/04 04:00:04;;;;;;;0.00;0.00;;;21.80;46.60;;;;;;5030727;28;20196;-49
2023/12/04 04:02:35;;;;;;;0.00;0.00;;;21.80;46.60;;;;;;5030634;28;20207;-48
2023/12/04 04:05:06;;;;;;;0.08;0.08;;;21.80;46.60;;;;;;5030765;28;20205;-49
2023/12/04 04:07:37;;;;;;;0.00;0.00;;;21.80;46.50;;;;;;5027705;28;20197;-49
2023/12/04 04:10:11;;;;;;;0.10;0.10;;;21.80;46.60;;;;;;5030662;28;20199;-48
2023/12/04 04:12:42;;;;;;;0.10;0.10;;;21.80;46.60;;;;;;5032714;28;20559;-48
2023/12/04 04:15:13;;;;;;;0.10;0.10;;;21.80;46.60;;;;;;5034348;28;20208;-48
2023/12/04 04:17:43;;;;;;;0.10;0.10;;;21.80;46.60;;;;;;5034217;28;20702;-46
2023/12/04 04:20:14;;;;;;;0.10;0.10;;;21.80;46.60;;;;;;5034018;28;20200;-46
2023/12/04 04:22:46;;;;;;;0.00;0.00;;;21.70;46.60;;;;;;5030970;28;20680;-46
2023/12/04 04:25:21;;;;;;;0.00;0.00;;;21.80;46.60;;;;;;5034394;28;20227;-46
2023/12/04 04:27:52;;;;;;;0.00;0.00;;;21.80;46.50;;;;;;5034558;28;20227;-48
2023/12/04 04:30:23;;;;;;;0.10;0.10;;;21.80;46.50;;;;;;5033583;28;20216;-48
2023/12/04 04:32:53;;;;;;;0.00;0.00;;;21.80;46.50;;;;;;5033978;28;20605;-48
2023/12/04 04:35:24;;;;;;;0.00;0.00;;;21.80;46.50;;;;;;5033528;28;20207;-47
2023/12/04 04:37:55;;;;;;;0.10;0.10;;;21.80;46.50;;;;;;5034221;28;20224;-45
2023/12/04 04:40:27;;;;;;;0.00;0.00;;;21.80;46.40;;;;;;5034185;28;20219;-46
2023/12/04 04:42:58;;;;;;;0.10;0.10;;;21.80;46.40;;;;;;5034318;28;20200;-46
2023/12/04 04:45:29;;;;;;;0.00;0.00;;;21.80;46.40;;;;;;5033764;28;20795;-47
2023/12/04 04:48:00;;;;;;;0.10;0.10;;;21.80;46.40;;;;;;5033894;28;20202;-46
2023/12/04 04:50:31;;;;;;;0.00;0.00;;;21.80;46.30;;;;;;5032922;28;20227;-46
2023/12/04 04:53:01;;;;;;;0.00;0.00;;;21.80;46.90;;;;;;5033874;28;20196;-46
2023/12/04 04:55:34;;;;;;;0.00;0.00;;;21.70;46.30;;;;;;5026969;28;20197;-48
2023/12/04 04:58:05;;;;;;;0.08;0.08;;;21.70;46.30;;;;;;5013874;28;20267;-45
2023/12/04 05:00:35;;;;;;;0.00;0.00;;;21.70;46.30;;;;;;5013168;28;20217;-49
2023/12/04 05:03:06;;;;;;;0.00;0.00;;;21.80;46.30;;;;;;5013967;28;20200;-47
2023/12/04 05:05:37;;;;;;;0.00;0.00;;;21.80;46.40;;;;;;5013814;28;20197;-46
2023/12/04 05:08:08;;;;;;;0.00;0.00;;;21.80;46.30;;;;;;5013915;28;20199;-50
2023/12/04 05:10:42;;;;;;;0.08;0.08;;;21.70;46.30;;;;;;5014024;28;20217;-49
2023/12/04 05:13:12;;;;;;;0.00;0.00;;;21.70;46.20;;;;;;5014256;28;20744;-48
2023/12/04 05:15:43;;;;;;;0.00;0.00;;;21.80;46.30;;;;;;5013177;28;20455;-46
2023/12/04 05:18:14;;;;;;;0.10;0.10;;;21.70;46.30;;;;;;5013762;28;20220;-48
2023/12/04 05:20:44;;;;;;;0.00;0.00;;;21.80;46.30;;;;;;5013459;28;20224;-47
2023/12/04 05:23:15;;;;;;;0.00;0.00;;;21.70;46.20;;;;;;5014377;28;20197;-48
2023/12/04 05:25:48;;;;;;;0.00;0.00;;;21.70;46.20;;;;;;5030505;28;20576;-48
2023/12/04 05:28:19;;;;;;;0.00;0.00;;;21.80;46.20;;;;;;5033147;28;20559;-46
2023/12/04 05:30:49;;;;;;;0.10;0.10;;;21.70;46.10;;;;;;5033045;28;20224;-48
2023/12/04 05:33:20;;;;;;;0.00;0.00;;;21.70;46.00;;;;;;5033050;28;20204;-50
2023/12/04 05:35:52;;;;;;;0.10;0.10;;;21.70;46.00;;;;;;5032815;28;20200;-46
2023/12/04 05:38:22;;;;;;;0.00;0.00;;;21.70;46.00;;;;;;5033214;28;20273;-48
2023/12/04 05:40:56;;;;;;;0.00;0.00;;;21.70;46.00;;;;;;5033033;28;20223;-49
2023/12/04 05:43:26;;;;;;;0.00;0.00;;;21.70;46.00;;;;;;5032295;28;20253;-46
2023/12/04 05:45:57;;;;;;;0.00;0.00;;;21.70;45.90;;;;;;5032061;28;20204;-47
2023/12/04 05:48:28;;;;;;;0.08;0.08;;;21.70;46.00;;;;;;5032803;28;20223;-46
2023/12/04 05:50:58;;;;;;;0.00;0.00;;;21.70;46.00;;;;;;5032436;28;20212;-45
2023/12/04 05:53:29;;;;;;;0.00;0.00;;;21.70;46.10;;;;;;5032424;28;20554;-46
2023/12/04 05:56:02;;;;;;;0.00;0.00;;;21.70;46.00;;;;;;5032512;28;20204;-48
2023/12/04 05:58:32;;;;;;;0.00;0.00;;;21.70;46.10;;;;;;5032837;28;20223;-48
2023/12/04 06:01:03;;;;;;;0.00;0.00;;;21.70;46.00;;;;;;5032170;28;20212;-45
2023/12/04 06:03:34;;;;;;;0.00;0.00;;;21.70;46.10;;;;;;5032796;28;20589;-46
2023/12/04 06:06:05;;;;;;;0.00;0.00;;;21.70;46.00;;;;;;5032511;28;20716;-46
2023/12/04 06:08:35;;;;;;;0.00;0.00;;;21.70;46.00;;;;;;5014229;28;20189;-48
2023/12/04 06:11:08;;;;;;;0.00;0.00;;;21.70;46.00;;;;;;5012309;28;20578;-47
2023/12/04 06:13:39;;;;;;;0.00;0.00;;;21.70;46.00;;;;;;5015295;28;20564;-46
2023/12/04 06:16:10;;;;;;;0.00;0.00;;;21.60;46.50;;;;;;5012709;28;20205;-48
2023/12/04 06:18:41;;;;;;;0.00;0.00;;;21.60;45.80;;;;;;5012884;28;20233;-48
2023/12/04 06:21:12;;;;;;;0.00;0.00;;;21.60;45.80;;;;;;5012022;28;20216;-49
2023/12/04 06:23:43;;;;;;;0.00;0.00;;;21.60;45.80;;;;;;5012302;28;20203;-46
2023/12/04 06:26:17;;;;;;;0.00;0.00;;;21.60;45.80;;;;;;5032133;28;20200;-48
2023/12/04 06:28:48;;;;;;;0.00;0.00;;;21.60;45.80;;;;;;5031162;28;20243;-46
2023/12/04 06:31:19;;;;;;;0.00;0.00;;;21.60;45.80;;;;;;5031357;28;20710;-48
2023/12/04 06:33:50;;;;;;;0.00;0.00;;;21.60;45.80;;;;;;5031817;28;20200;-48
2023/12/04 06:36:22;;;;;;;0.00;0.00;;;21.60;45.80;;;;;;5031009;28;20379;-48
2023/12/04 06:38:55;;;;;;;0.00;0.00;;;21.60;45.80;;;;;;5031795;28;20390;-47
2023/12/04 06:41:28;;;;;;;0.00;0.00;;;21.60;45.80;;;;;;5031794;28;20708;-48
2023/12/04 06:43:59;;;;;;;0.10;0.10;;;21.60;45.90;;;;;;5030737;28;20809;-47
2023/12/04 06:46:32;;;;;;;0.00;0.00;;;21.50;45.90;;;;;;5031483;28;20200;-45
2023/12/04 06:49:04;;;;;;;0.00;0.00;;;21.60;45.90;;;;;;5032061;28;20200;-46
2023/12/04 06:51:34;;;;;;;0.00;0.00;;;21.60;45.90;;;;;;5031520;28;20215;-48
2023/12/04 06:54:05;;;;;;;0.08;0.08;;;21.50;45.80;;;;;;5030968;28;20207;-48
2023/12/04 06:56:38;;;;;;;0.10;0.10;;;21.50;45.80;;;;;;5031690;28;20196;-51
2023/12/04 06:59:08;;;;;;;0.00;0.00;;;21.50;45.80;;;;;;5029660;28;20231;-48
2023/12/04 07:01:39;;;;;;;0.00;0.00;;;21.50;45.80;;;;;;5031430;28;20716;-46
2023/12/04 07:04:11;;;;;;;0.00;0.00;;;21.50;45.80;;;;;;5031145;28;20211;-46
2023/12/04 07:06:42;;;;;;;0.10;0.10;;;21.50;45.80;;;;;;5031294;28;20291;-49
2023/12/04 07:09:13;;;;;;;0.00;0.00;;;21.50;45.80;;;;;;5031123;28;20215;-50
2023/12/04 07:11:46;;;;;;;0.00;0.00;;;21.50;45.80;;;;;;5031618;28;20224;-51
2023/12/04 07:14:17;;;;;;;0.00;0.00;;;21.50;45.70;;;;;;5030584;28;20657;-48
2023/12/04 07:16:47;;;;;;;0.05;0.05;;;21.50;45.80;;;;;;5031235;28;20204;-50
2023/12/04 07:19:18;;;;;;;0.00;0.00;;;21.50;45.70;;;;;;5031586;28;20227;-48
2023/12/04 07:21:49;;;;;;;0.05;0.05;;;21.50;45.80;;;;;;5029135;28;20208;-48
2023/12/04 07:24:20;;;;;;;0.00;0.00;;;21.50;45.80;;;;;;5030432;28;20207;-48
2023/12/04 07:26:52;;;;;;;0.00;0.00;;;21.40;45.80;;;;;;5029776;28;20199;-44
2023/12/04 07:29:23;;;;;;;0.00;0.00;;;21.40;45.70;;;;;;5011065;28;20200;-53
2023/12/04 07:31:54;;;;;;;0.03;0.03;;;21.40;45.50;;;;;;5011425;28;20244;-51
2023/12/04 07:34:24;;;;;;;0.10;0.10;;;21.40;44.80;;;;;;5011059;28;20201;-52
2023/12/04 07:36:55;;;;;;;0.00;0.00;;;21.30;44.10;;;;;;5025302;28;20558;-50
2023/12/04 07:39:26;;;;;;;0.10;0.10;;;21.20;43.80;;;;;;5030711;28;20232;-48
2023/12/04 07:41:58;;;;;;;0.00;0.00;;;21.10;43.70;;;;;;5030593;28;20574;-43
2023/12/04 07:44:29;;;;;;;0.10;0.10;;;21.00;43.60;;;;;;5030213;28;20207;-44
2023/12/04 07:47:00;;;;;;;0.00;0.00;;;20.90;43.70;;;;;;5032284;28;20200;-42
2023/12/04 07:49:30;;;;;;;0.00;0.00;;;20.80;44.00;;;;;;5034026;28;20188;-44
2023/12/04 07:52:01;;;;;;;0.10;0.10;;;20.70;44.20;;;;;;5034396;28;20718;-45
2023/12/04 07:54:35;;;;;;;0.00;0.00;;;20.70;44.30;;;;;;5032654;28;20200;-43
2023/12/04 07:57:08;;;;;;;0.00;0.00;;;20.70;44.50;;;;;;5034585;28;20195;-46
2023/12/04 07:59:38;;;;;;;0.00;0.00;;;20.60;44.60;;;;;;5014946;28;20224;-47
2023/12/04 08:02:09;;;;;;;0.00;0.00;;;20.60;44.60;;;;;;5026645;28;20216;-46
2023/12/04 08:04:40;;;;;;;0.00;0.00;;;20.60;44.70;;;;;;5034331;28;20200;-47
2023/12/04 08:07:10;;;;;;;0.05;0.05;;;20.60;44.80;;;;;;5033623;28;20271;-46
2023/12/04 08:09:41;;;;;;;0.00;0.00;;;20.60;44.90;;;;;;5034262;28;20200;-46
2023/12/04 08:12:14;;;;;;;0.03;0.03;;;20.60;45.00;;;;;;5029965;28;20212;-45
2023/12/04 08:14:46;;;;;;;0.00;0.00;;;20.60;45.10;;;;;;5033143;28;20196;-43
2023/12/04 08:17:17;;;;;;;0.00;0.00;;;20.60;45.10;;;;;;5026550;28;20283;-44
2023/12/04 08:19:48;;;;;;;0.10;0.10;;;20.60;45.10;;;;;;5030970;28;20220;-43
2023/12/04 08:22:19;;;;;;;0.10;0.10;;;20.60;45.10;;;;;;5033859;28;20220;-46
2023/12/04 08:24:50;;;;;;;0.00;0.00;;;20.70;45.20;;;;;;5033829;28;20192;-45
2023/12/04 08:27:22;;;;;;;0.10;0.10;;;20.70;45.20;;;;;;5033923;28;20219;-45
2023/12/04 08:29:53;;;;;;;0.10;0.10;;;20.70;45.30;;;;;;5029516;28;20192;-43
2023/12/04 08:32:24;;;;;;;0.10;0.10;;;20.70;45.20;;;;;;5032530;28;20700;-44
2023/12/04 08:34:54;;;;;;;0.10;0.10;;;20.70;45.30;;;;;;5033135;28;20203;-45
2023/12/04 08:37:26;;;;;;;0.03;0.03;;;20.70;45.30;;;;;;5033276;28;20200;-47
2023/12/04 08:39:56;;;;;;;0.08;0.08;;;20.70;45.30;;;;;;5032333;28;20243;-48
2023/12/04 08:42:29;;;;;;;0.05;0.05;;;20.70;45.20;;;;;;5032964;28;20670;-46
2023/12/04 08:45:00;;;;;;;0.10;0.10;;;20.70;45.20;;;;;;5031996;28;20208;-47
2023/12/04 08:47:30;;;;;;;0.10;0.10;;;20.70;45.30;;;;;;5033148;28;20239;-47
2023/12/04 08:50:01;;;;;;;0.10;0.10;;;20.70;45.30;;;;;;5032706;28;20192;-47
2023/12/04 08:52:32;;;;;;;0.10;0.10;;;20.70;45.30;;;;;;5031635;28;20224;-46
2023/12/04 08:55:03;;;;;;;0.10;0.10;;;20.70;45.30;;;;;;5032415;28;20660;-47
2023/12/04 08:57:36;;;;;;;0.00;0.00;;;20.70;45.30;;;;;;5032725;28;20204;-50
2023/12/04 09:00:08;;;;;;;0.10;0.10;;;20.70;45.40;;;;;;5032843;28;20643;-49
2023/12/04 09:02:38;;;;;;;0.00;0.00;;;20.70;45.50;;;;;;5033147;28;20196;-46
2023/12/04 09:05:10;;;;;;;0.00;0.00;;;20.70;45.50;;;;;;5032764;28;20188;-49
2023/12/04 09:07:40;;;;;;;0.10;0.10;;;20.70;45.50;;;;;;5032873;28;20197;-49
2023/12/04 09:10:11;;;;;;;0.10;0.10;;;20.70;45.50;;;;;;5032409;28;20196;-48
2023/12/04 09:12:45;;;;;;;0.10;0.10;;;20.70;45.50;;;;;;5032522;28;20207;-46
2023/12/04 09:15:16;;;;;;;0.10;0.10;;;20.70;45.50;;;;;;5032467;28;20196;-48
2023/12/04 09:17:47;;;;;;;0.03;0.03;;;20.70;45.50;;;;;;5033139;28;20371;-50
2023/12/04 09:20:18;;;;;;;0.00;0.00;;;20.70;45.50;;;;;;5032497;28;20676;-48
2023/12/04 09:22:49;;;;;;;0.00;0.00;;;20.70;45.50;;;;;;5032755;28;20204;-49
2023/12/04 09:25:19;;;;;;;0.05;0.05;;;20.70;45.50;;;;;;5031954;28;20200;-49
2023/12/04 09:27:52;;;;;;;0.00;0.00;;;20.70;45.50;;;;;;5032747;28;20246;-47
2023/12/04 09:30:23;;;;;;;0.00;0.00;;;20.70;45.50;;;;;;5031895;28;20568;-47
2023/12/04 09:32:53;;;;;;;0.00;0.00;;;20.70;45.50;;;;;;5015755;28;20189;-48
2023/12/04 09:35:24;;;;;;;0.00;0.00;;;20.70;45.50;;;;;;5030073;28;20552;-46
2023/12/04 09:37:55;;;;;;;0.05;0.05;;;20.70;45.50;;;;;;5032432;28;20204;-48
2023/12/04 09:40:26;;;;;;;0.00;0.00;;;20.70;45.50;;;;;;5032132;28;20234;-47
2023/12/04 09:42:59;;;;;;;0.00;0.00;;;20.70;45.50;;;;;;5032557;28;20193;-48
2023/12/04 09:45:31;;;;;;;0.00;0.00;;;20.70;45.60;;;;;;5032393;28;20196;-47
2023/12/04 09:48:02;;;;;;;0.00;0.00;;;20.70;45.60;;;;;;5031424;28;20188;-47
2023/12/04 09:50:33;;;;;;;0.10;0.10;;;20.70;45.60;;;;;;5032022;28;20231;-49
2023/12/04 09:53:04;;;;;;;0.00;0.00;;;20.70;45.60;;;;;;5031536;28;20211;-49
2023/12/04 09:55:35;;;;;;;0.00;0.00;;;20.70;45.60;;;;;;5031908;28;20209;-49
2023/12/04 09:58:08;;;;;;;0.00;0.00;;;20.70;45.70;;;;;;5032569;28;20211;-51
2023/12/04 10:00:39;;;;;;;0.00;0.00;;;20.70;45.60;;;;;;5031664;28;20223;-49
2023/12/04 10:03:10;;;;;;;0.00;0.00;;;20.70;45.60;;;;;;5032062;28;20215;-49
2023/12/04 10:05:45;;;;;;;0.00;0.00;;;20.70;45.60;;;;;;5031916;28;20656;-48
2023/12/04 10:08:16;;;;;;;0.05;0.05;;;20.60;45.60;;;;;;5024414;28;20196;-47
2023/12/04 10:10:47;;;;;;;0.00;0.00;;;20.60;46.20;;;;;;5030420;28;20302;-46
2023/12/04 10:13:20;;;;;;;0.00;0.00;;;20.70;45.60;;;;;;5031974;28;20203;-49
2023/12/04 10:15:52;;;;;;;0.00;0.00;;;20.60;45.60;;;;;;5031617;28;20210;-47
2023/12/04 10:18:30;;;;;;;0.10;0.10;;;20.60;45.60;;;;;;5028472;28;20212;-49
2023/12/04 10:21:02;;;;;;;0.03;0.03;;;20.60;45.60;;;;;;5011940;28;20659;-50
2023/12/04 10:23:41;;;;;;;0.00;0.00;;;20.60;45.60;;;;;;5012239;28;20731;-49
2023/12/04 10:26:12;;;;;;;0.00;0.00;;;20.60;45.60;;;;;;5011698;28;20227;-49
2023/12/04 10:29:02;;;;;;;0.00;0.00;;;20.60;45.60;;;;;;5011953;28;20199;-49
2023/12/04 10:31:36;;;;;;;0.00;0.00;;;20.60;45.60;;;;;;5030297;28;20220;-52
2023/12/04 10:34:09;;;;;;;0.00;0.00;;;20.60;45.60;;;;;;5031398;28;20191;-49
2023/12/04 10:36:40;;;;;;;0.00;0.00;;;20.60;45.70;;;;;;5031940;28;20258;-47
2023/12/04 10:39:13;;;;;;;0.10;0.10;;;20.60;45.70;;;;;;5031288;28;20191;-46
2023/12/04 10:41:43;;;;;;;0.10;0.10;;;20.60;45.70;;;;;;5031100;28;20219;-49
2023/12/04 10:44:20;;;;;;;0.10;0.10;;;20.60;45.80;;;;;;5030793;28;20548;-48
2023/12/04 10:46:50;;;;;;;0.00;0.00;;;20.50;45.70;;;;;;5031331;28;20196;-49
2023/12/04 10:49:21;;;;;;;0.00;0.00;;;20.60;45.80;;;;;;5029310;28;20196;-48
2023/12/04 10:51:52;;;;;;;0.10;0.10;;;20.60;45.70;;;;;;5031161;28;20605;-47
2023/12/04 10:54:23;;;;;;;0.10;0.10;;;20.60;45.70;;;;;;5030941;28;20286;-47
2023/12/04 10:57:01;;;;;;;0.00;0.00;;;20.60;45.70;;;;;;5030471;28;20200;-47
2023/12/04 10:59:39;;;;;;;0.00;0.00;;;20.50;45.70;;;;;;5031275;28;20302;-48
2023/12/04 11:02:14;;;;;;;0.10;0.10;;;20.50;45.70;;;;;;5031651;28;20239;-46
2023/12/04 11:04:45;;;;;;;0.05;0.05;;;20.50;45.70;;;;;;5031902;28;20564;-48
2023/12/04 11:07:17;;;;;;;0.10;0.10;;;20.60;45.70;;;;;;5031800;28;20220;-49
2023/12/04 11:09:49;;;;;;;0.00;0.00;;;20.50;45.70;;;;;;5030960;28;20566;-46
2023/12/04 11:12:27;;;;;;;0.00;0.00;;;20.50;45.70;;;;;;5031610;28;20215;-46
2023/12/04 11:15:04;;;;;;;0.00;0.00;;;20.50;45.70;;;;;;5030191;28;20192;-48
2023/12/04 11:17:40;;;;;;;0.00;0.00;;;20.40;45.70;;;;;;5029539;28;20188;-46
2023/12/04 11:20:16;;;;;;;0.00;0.00;;;20.50;45.70;;;;;;5028790;28;20215;-46
2023/12/04 11:22:47;;;;;;;0.00;0.00;;;20.50;45.80;;;;;;5033981;28;20184;-46
2023/12/04 11:25:19;;;;;;;0.10;0.10;;;20.50;45.80;;;;;;5037607;28;20202;-48
2023/12/04 11:27:49;;;;;;;0.00;0.00;;;20.50;45.80;;;;;;5035396;28;20198;-48
2023/12/04 11:30:23;;;;;;;0.00;0.00;;;20.50;45.80;;;;;;5037707;28;20219;-47
2023/12/04 11:32:56;;;;;;;0.00;0.00;;;20.50;45.90;;;;;;5035501;28;20192;-48
2023/12/04 11:35:30;;;;;;;0.00;0.00;;;20.50;45.80;;;;;;5034402;28;20199;-46
2023/12/04 11:38:01;;;;;;;0.00;0.00;;;20.50;45.90;;;;;;5035996;28;20191;-49
2023/12/04 11:40:32;;;;;;;0.00;0.00;;;20.50;45.90;;;;;;5035587;28;20216;-45
2023/12/04 11:43:03;;;;;;;0.00;0.00;;;20.50;45.80;;;;;;5037524;28;20195;-47
2023/12/04 11:45:43;;;;;;;0.00;0.00;;;20.50;45.90;;;;;;5037782;28;20203;-49
2023/12/04 11:48:14;;;;;;;0.00;0.00;;;20.50;45.90;;;;;;5035770;28;20290;-46
2023/12/04 11:50:46;;;;;;;0.08;0.08;;;20.50;45.80;;;;;;5036585;28;20208;-46
2023/12/04 11:53:17;;;;;;;0.03;0.03;;;20.40;45.80;;;;;;5037530;28;20201;-49
2023/12/04 11:55:50;;;;;;;0.00;0.00;;;20.40;45.80;;;;;;5034921;28;20536;-47
2023/12/04 11:58:20;;;;;;;0.10;0.10;;;20.40;45.80;;;;;;5037395;28;20188;-46
2023/12/04 12:00:55;;;;;;;0.00;0.00;;;20.40;45.80;;;;;;5020460;28;20241;-46
2023/12/04 12:03:26;;;;;;;0.00;0.00;;;20.40;45.90;;;;;;5018071;28;20202;-48
2023/12/04 12:05:57;;;;;;;0.00;0.00;;;20.40;45.90;;;;;;5017210;28;20200;-46
2023/12/04 12:08:30;;;;;;;0.00;0.00;;;20.40;45.90;;;;;;5017863;28;20259;-46
2023/12/04 12:11:01;;;;;;;0.00;0.00;;;20.40;45.90;;;;;;5019806;28;20217;-46
2023/12/04 12:13:32;;;;;;;0.00;0.00;;;20.40;45.90;;;;;;5018162;28;20197;-49
2023/12/04 12:16:04;;;;;;;0.00;0.00;;;20.40;45.90;;;;;;5017633;28;20211;-47
2023/12/04 12:18:39;;;;;;;0.00;0.00;;;20.40;46.00;;;;;;5018116;28;20538;-43
2023/12/04 12:21:10;;;;;;;0.03;0.03;;;20.40;46.00;;;;;;5017191;28;20647;-46
2023/12/04 12:23:42;;;;;;;0.08;0.08;;;20.40;46.00;;;;;;5017644;28;20599;-42
2023/12/04 12:26:13;;;;;;;0.00;0.00;;;20.40;45.90;;;;;;5017905;28;20239;-44
2023/12/04 12:28:43;;;;;;;0.00;0.00;;;20.30;45.90;;;;;;5017427;28;20560;-43
2023/12/04 12:31:17;;;;;;;0.00;0.00;;;20.30;45.90;;;;;;5017041;28;20220;-46
2023/12/04 12:33:47;;;;;;;0.00;0.00;;;20.30;45.90;;;;;;5014129;28;20208;-47
2023/12/04 12:36:18;;;;;;;0.00;0.00;;;20.30;45.90;;;;;;5014329;28;20216;-48
2023/12/04 12:38:49;;;;;;;0.03;0.03;;;20.30;45.90;;;;;;5014732;28;20205;-43
2023/12/04 12:41:20;;;;;;;0.10;0.10;;;20.30;46.00;;;;;;5014283;28;20235;-43
2023/12/04 12:43:55;;;;;;;0.03;0.03;;;20.30;45.90;;;;;;5014579;28;20679;-44
2023/12/04 12:46:30;;;;;;;0.10;0.10;;;20.30;46.00;;;;;;5014329;28;20228;-43
2023/12/04 12:49:01;;;;;;;0.00;0.00;;;20.30;46.00;;;;;;5014635;28;20223;-42
2023/12/04 12:51:32;;;;;;;0.00;0.00;;;20.30;46.00;;;;;;5014058;28;20228;-45
2023/12/04 12:54:02;;;;;;;0.00;0.00;;;20.30;46.00;;;;;;5016410;28;20211;-45
2023/12/04 12:56:33;;;;;;;0.00;0.00;;;20.30;46.00;;;;;;5033478;28;20282;-46
2023/12/04 12:59:05;;;;;;;0.00;0.00;;;20.30;46.00;;;;;;5022541;28;20240;-45
2023/12/04 13:01:39;;;;;;;0.10;0.10;;;20.20;46.00;;;;;;5022322;28;20224;-45
2023/12/04 13:04:11;;;;;;;0.00;0.00;;;20.20;46.10;;;;;;5034286;28;20223;-45
2023/12/04 13:06:42;;;;;;;0.00;0.00;;;20.20;46.00;;;;;;5033584;28;20204;-44
2023/12/04 13:09:17;;;;;;;0.00;0.00;;;20.20;46.00;;;;;;5033377;28;20590;-45